Spot Road, Arizona (BMGR) Weather observations

Data are for 10 minute period ending at time listed.
 Day   Time   Solar   Ave.   Ave.  Ave.  Vector  Max.   Total    
  of    of     Rad.   Air    Rel.  Wind   Wind   Wind  Precip.   
Year   Day            Temp.  Hum.  Speed  Dir.   Gust            
2026   (MST)  Kw/m2    F      %     mph   deg.    mph    in.     
-----------------------------------------------------------------
 124    3:35   0.00   69.7    64   14.3   149    16.6    0.00 
 124    3:40   0.00   69.7    64   12.9   172    16.0    0.00 
 124    3:45   0.00   68.6    43   11.8   220    14.4    0.00 
 124    3:50   0.00   67.9    40   12.0   210    16.0    0.00 
 124    3:55   0.00   67.7    40   10.6   214    13.8    0.00 
 124    4:00   0.00   67.6    40   11.4   221    13.8    0.00 
 124    4:05   0.00   67.5    40   11.2   227    16.0    0.00 
 124    4:10   0.00   67.4    40   12.5   222    16.0    0.00 
 124    4:15   0.00   67.2    40   12.1   216    16.6    0.00 
 124    4:20   0.00   66.9    40   12.7   218    17.2    0.00 
 124    4:25   0.00   66.7    40   12.1   221    14.9    0.00 
 124    4:30   0.00   66.5    41   13.3   221    16.6    0.00 
 124    4:35   0.00   66.3    41   13.9   219    16.6    0.00 
 124    4:40   0.00   66.1    41   11.3   218    14.9    0.00 
 124    4:45   0.00   65.9    42   10.9   220    13.8    0.00 
 124    4:50   0.00   65.8    42    9.4   216    11.6    0.00 
 124    4:55   0.00   65.7    42    8.8   214    11.0    0.00 
 124    5:00   0.00   65.6    42    8.8   210    11.6    0.00 
 124    5:05   0.00   65.6    42    9.7   208    12.1    0.00 
 124    5:10   0.00   65.6    42   10.1   206    12.1    0.00 
 124    5:15   0.00   65.6    42    9.9   200    12.7    0.00 
 124    5:20   0.00   65.6    42    9.1   196    11.0    0.00 
 124    5:25   0.00   65.7    42    9.2   192    11.0    0.00 
 124    5:30   0.00   65.7    41   10.5   189    13.8    0.00 
 124    5:35   0.00   65.9    41   13.4   191    15.5    0.00 
 124    5:40   0.00   65.9    41   11.7   187    13.8    0.00 
 124    5:45   0.00   65.9    40   10.7   182    13.8    0.00 
 124    5:50   0.00   65.8    40    8.1   176    11.0    0.00 
 124    5:55   0.00   65.8    40    6.9   177     8.8    0.00 
 124    6:00   0.00   65.8    40    7.7   184     9.9    0.00 
 124    6:05   0.01   65.8    40    8.6   191    11.6    0.00 
 124    6:10   0.01   65.8    40    9.8   190    11.6    0.00 
 124    6:15   0.01   65.8    40    7.8   182    10.5    0.00 
 124    6:20   0.02   65.8    40    6.6   176     8.8    0.00 
 124    6:25   0.02   65.8    40    6.2   174     8.2    0.00 
 124    6:30   0.02   65.8    40    6.4   174     7.7    0.00 
 124    6:35   0.03   65.8    40    6.1   175     7.7    0.00 
 124    6:40   0.03   65.8    40    4.6   184     6.0    0.00 
 124    6:45   0.04   65.9    39    5.0   192     6.5    0.00 
 124    6:50   0.05   65.9    39    5.4   216     7.7    0.00 
 124    6:55   0.06   65.9    39    6.8   215     8.2    0.00 
 124    7:00   0.07   66.0    39    7.1   214     9.3    0.00 
 124    7:05   0.08   66.0    39    8.9   214    11.6    0.00 
 124    7:10   0.08   66.0    39   10.2   218    13.8    0.00 
 124    7:15   0.08   65.9    39   12.0   220    14.4    0.00 
 124    7:20   0.09   65.8    39   12.0   222    14.9    0.00 
 124    7:25   0.10   65.6    40   11.1   221    14.4    0.00 
 124    7:30   0.09   65.6    40   10.8   217    12.7    0.00 
 124    7:35   0.10   65.6    40   10.3   217    14.4    0.00 
 124    7:40   0.10   65.8    40    9.7   212    12.1    0.00 
 124    7:45   0.11   65.7    40    9.7   225    12.1    0.00 
 124    7:50   0.12   65.7    40    9.4   214    11.6    0.00 
 124    7:55   0.12   65.8    40    9.0   214    11.6    0.00 
 124    8:00   0.14   65.8    40    9.9   211    11.6    0.00 
 124    8:05   0.15   66.0    39    8.9   206    11.0    0.00 
 124    8:10   0.16   66.1    39    8.5   206    11.0    0.00 
 124    8:15   0.19   66.2    39    7.5   206     9.9    0.00 
 124    8:20   0.20   66.6    39    8.9   195    11.6    0.00 
 124    8:25   0.21   66.5    39    9.3   202    11.0    0.00 
 124    8:30   0.24   66.7    39    9.4   204    11.6    0.00 
 124    8:35   0.24   67.1    38    7.4   199    10.5    0.00 
 124    8:40   0.24   67.2    38    6.4   229     8.8    0.00 
 124    8:45   0.24   67.2    38    6.3   213     9.3    0.00 
 124    8:50   0.24   67.2    38    4.2   200     7.1    0.00 
 124    8:55   0.22   67.6    38    4.4   217     6.5    0.00 
 124    9:00   0.23   67.7    38    3.2   202     8.2    0.00 
 124    9:05   0.23   68.0    37    6.9   209     9.3    0.00 
 124    9:10   0.24   68.1    37    5.8   224     8.8    0.00 
 124    9:15   0.24   68.1    38    9.2   228    12.1    0.00 
 124    9:20   0.24   68.3    37    5.8   214     7.7    0.00 
 124    9:25   0.19   68.3    37    5.6   193     8.8    0.00 
 124    9:30   0.21   68.5    37    5.8   215     8.8    0.00 
 124    9:35   0.22   68.4    37    5.6   196     8.8    0.00 
 124    9:40   0.25   68.7    37    5.2   216     7.1    0.00 
 124    9:45   0.27   69.0    38    6.9   217    11.6    0.00 
 124    9:50   0.26   68.9    39    9.1   200    12.1    0.00 
 124    9:55   0.25   68.9    39    7.6   217    11.6    0.00 
 124   10:00   0.23   69.1    39    8.5   207    11.6    0.00 
 124   10:05   0.22   69.4    40    9.0   204    11.6    0.00 
 124   10:10   0.22   69.3    40    8.2   191    12.1    0.00 
 124   10:15   0.23   69.3    42   10.0   178    12.7    0.00 
 124   10:20   0.23   69.7    41    8.5   199    11.6    0.00 
 124   10:25   0.24   69.6    42   10.1   195    13.8    0.00 
 124   10:30   0.30   69.6    44   10.0   206    12.1    0.00 
 124   10:35   0.30   69.9    43    9.5   188    12.7    0.00 
 124   10:40   0.29   70.1    44   10.5   200    15.5    0.00 
 124   10:45   0.30   70.1    44    9.0   211    13.3    0.00 
 124   10:50   0.31   70.0    44    9.3   205    13.3    0.00 
 124   10:55   0.31   70.3    44   10.5   175    14.9    0.00 
 124   11:00   0.30   70.3    44    9.1   202    12.7    0.00 
 124   11:05   0.29   70.2    44    9.6   183    13.3    0.00 
 124   11:10   0.31   70.2    43   12.4   170    14.9    0.00 
 124   11:15   0.28   69.8    44   10.1   177    15.5    0.00 
 124   11:20   0.29   70.1    43   11.6   190    15.5    0.00 
 124   11:25   0.33   70.0    41    9.9   194    12.1    0.00 
 124   11:30   0.30   70.7    40    7.5   181    12.7    0.00 
 124   11:35   0.28   70.5    40   10.9   164    14.4    0.00 
 124   11:40   0.25   70.3    40   10.8   173    14.4    0.00 
 124   11:45   0.27   70.7    40   11.6   184    17.2    0.00 
 124   11:50   0.27   70.5    44   12.4   169    16.0    0.00 
 124   11:55   0.24   70.6    44   11.8   190    16.0    0.00 
 124   12:00   0.26   70.3    47   12.6   190    14.4    0.00 
 124   12:05   0.28   70.6    47   10.2   177    14.4    0.00 
 124   12:10   0.26   70.4    46   10.8   204    14.9    0.00 
 124   12:15   0.26   70.5    48   11.2   203    14.9    0.00 
 124   12:20   0.28   70.6    46   12.6   194    14.9    0.00 
 124   12:25   0.30   70.7    46   12.7   195    18.9    0.00 
 124   12:30   0.30   70.7    45   15.3   191    18.3    0.00 
 124   12:35   0.30   70.5    45   12.6   185    17.7    0.00 
 124   12:40   0.30   70.7    44   14.3   195    18.9    0.00 
 124   12:45   0.29   70.8    44   11.5   186    13.8    0.00 
 124   12:50   0.32   70.8    44    7.7   190    11.6    0.00 
 124   12:55   0.38   71.7    42    8.5   170    13.3    0.00 
 124   13:00   0.37   71.5    42    9.2   196    14.9    0.00 
 124   13:05   0.34   71.5    42    8.0   209    12.7    0.00 
 124   13:10   0.34   71.3    42   10.7   217    13.8    0.00 
 124   13:15   0.36   71.4    42    7.0   178    10.5    0.00 
 124   13:20   0.37   71.8    41    4.5   202     7.1    0.00 
 124   13:25   0.35   71.8    42    6.7   214    11.0    0.00 
 124   13:30   0.35   72.0    42    7.9   184    11.6    0.00 
 124   13:35   0.41   72.1    42    7.2   180    10.5    0.00 
 124   13:40   0.41   72.0    42    7.9   181    11.6    0.00 
 124   13:45   0.40   71.8    42    6.2   197    11.6    0.00 
 124   13:50   0.47   72.3    42   10.9   166    16.6    0.00 
 124   13:55   0.44   72.4    42    9.9   177    14.9    0.00 
 124   14:00   0.43   72.7    42   11.0   170    15.5    0.00 
 124   14:05   0.43   72.6    41    8.3   186    12.7    0.00 
 124   14:10   0.46   73.1    40    7.2   202    11.6    0.00 
 124   14:15   0.51   73.1    41    8.6   191    12.7    0.00 
 124   14:20   0.44   73.1    42    8.4   173    12.1    0.00 
 124   14:25   0.40   73.4    42    5.8   157    11.6    0.00 
 124   14:30   0.41   74.2    40    9.1   188    13.3    0.00 
 124   14:35   0.38   73.6    41    8.2   185    13.3    0.00 
 124   14:40   0.37   73.4    41    9.5   190    14.4    0.00 
 124   14:45   0.38   73.8    40    6.6   186     8.8    0.00 
 124   14:50   0.41   74.0    41    4.5   175     8.8    0.00 
 124   14:55   0.43   74.3    40    9.3   185    13.3    0.00 
 124   15:00   0.45   73.9    41    8.3   186    14.9    0.00 
 124   15:05   0.46   74.2    41   11.6   186    15.5    0.00 
 124   15:10   0.49   74.3    41    9.4   179    14.4    0.00 
 124   15:15   0.52   75.1    40    9.3   189    14.9    0.00 
 124   15:20   0.46   74.7    40    6.8   200    11.6    0.00 
 124   15:25   0.37   75.2    40    7.6   188    11.6    0.00 
 124   15:30   0.36   75.2    40    9.3   188    13.3    0.00 
 124   15:35   0.35   75.4    40    7.8   209    12.7    0.00 
 124   15:40   0.37   76.2    39    6.8   191    13.8    0.00 
 124   15:45   0.35   75.9    40   10.5   190    17.2    0.00 
 124   15:50   0.28   75.1    40    6.4   198    13.3    0.00 
 124   15:55   0.27   75.8    39    6.9   154    14.4    0.00 
 124   16:00   0.25   75.6    40   10.2   192    14.9    0.00 
 124   16:05   0.22   75.3    40    8.9   189    12.7    0.00 
 124   16:10   0.20   75.7    39   11.0   209    14.4    0.00 
 124   16:15   0.22   75.8    39    8.8   200    11.6    0.00 
 124   16:20   0.21   75.9    38    9.9   209    12.7    0.00 
 124   16:25   0.20   75.6    38    6.8   229    10.5    0.00 
 124   16:30   0.19   75.8    38    8.7   221    13.3    0.00 
 124   16:35   0.18   75.7    39    8.5   215    13.3    0.00 
 124   16:40   0.18   76.3    38   10.8   207    16.0    0.00 
 124   16:45   0.19   76.0    38   12.0   211    16.6    0.00 
 124   16:50   0.20   75.8    37   14.0   216    18.3    0.00 
 124   16:55   0.19   76.0    37   13.9   200    19.4    0.00 
 124   17:00   0.18   76.1    36   11.2   190    16.0    0.00 
 124   17:05   0.18   76.1    36   10.8   198    14.9    0.00 
 124   17:10   0.19   76.2    35   10.8   203    14.4    0.00 
 124   17:15   0.17   76.9    32   10.3   211    15.5    0.00 
 124   17:20   0.17   77.1    30   12.6   201    16.0    0.00 
 124   17:25   0.15   77.2    30   10.4   200    15.5    0.00 
 124   17:30   0.15   77.2    30   14.7   189    18.9    0.00 
 124   17:35   0.14   76.9    30   11.1   180    17.2    0.00 
 124   17:40   0.13   76.9    29   10.2   173    15.5    0.00 
 124   17:45   0.11   77.1    26   13.0   170    17.2    0.00 
 124   17:50   0.10   77.3    26   12.8   164    16.6    0.00 
 124   17:55   0.09   77.3    26   15.3   169    18.9    0.00 
 124   18:00   0.08   76.8    25   15.3   169    20.5    0.00 
 124   18:05   0.07   76.9    24   14.7   164    20.5    0.00 
 124   18:10   0.07   76.8    23   17.1   164    21.1    0.00 
 124   18:15   0.06   76.7    22   16.1   164    18.9    0.00 
 124   18:20   0.05   76.8    21   15.1   168    18.3    0.00 
 124   18:25   0.04   76.6    21   16.6   157    19.4    0.00 
 124   18:30   0.04   76.4    21   16.0   158    18.9    0.00 
 124   18:35   0.03   76.4    22   14.6   161    18.9    0.00 
 124   18:40   0.03   76.3    22   14.8   158    17.7    0.00 
 124   18:45   0.03   76.1    21   14.8   155    18.3    0.00 
 124   18:50   0.02   76.1    21   15.0   163    18.9    0.00 
 124   18:55   0.02   76.0    20   14.5   169    17.2    0.00 
 124   19:00   0.01   76.0    20   12.9   170    15.5    0.00 
 124   19:05   0.01   75.8    20   10.9   176    13.3    0.00 
 124   19:10   0.00   75.7    20   11.0   178    12.7    0.00 
 124   19:15   0.00   75.7    20   12.2   179    14.4    0.00 
 124   19:20   0.00   75.6    21   11.4   175    14.4    0.00 
 124   19:25   0.00   75.4    21   11.6   176    13.8    0.00 
 124   19:30   0.00   75.3    22   11.6   176    14.4    0.00 
 124   19:35   0.00   75.2    22   12.6   177    14.9    0.00 
 124   19:40   0.00   75.0    22   12.2   184    14.4    0.00 
 124   19:45   0.00   74.9    22   12.7   185    14.9    0.00 
 124   19:50   0.00   74.8    22   12.8   184    15.5    0.00 
 124   19:55   0.00   74.6    22   12.6   181    16.0    0.00 
 124   20:00   0.00   74.4    22   11.5   183    13.8    0.00 
 124   20:05   0.00   74.3    23   10.6   184    12.7    0.00 
 124   20:10   0.00   74.2    23   10.8   184    12.7    0.00 
 124   20:15   0.00   74.1    23   10.2   185    12.7    0.00 
 124   20:20   0.00   74.0    23    8.9   185    11.0    0.00 
 124   20:25   0.00   73.9    24    7.8   190     9.3    0.00 
 124   20:30   0.00   73.8    24    7.2   192     8.8    0.00 
 124   20:35   0.00   73.7    24    6.2   190     7.7    0.00 
 124   20:40   0.00   73.7    24    6.0   188     7.7    0.00 
 124   20:45   0.00   73.6    24    7.0   191     8.8    0.00 
 124   20:50   0.00   73.6    25    7.7   193     9.9    0.00 
 124   20:55   0.00   73.4    25    7.1   196     8.2    0.00 
 124   21:00   0.00   73.1    25    6.1   192     7.7    0.00 
 124   21:05   0.00   72.9    25    5.9   193     7.7    0.00 
 124   21:10   0.00   72.8    25    6.5   181     8.2    0.00 
 124   21:15   0.00   72.7    26    6.5   158     7.7    0.00 
 124   21:20   0.00   72.9    27    8.6   159    11.6    0.00 
 124   21:25   0.00   73.0    32   10.9   163    17.2    0.00 
 124   21:30   0.00   72.9    42   15.0   162    17.7    0.00 
 124   21:35   0.00   72.6    44   14.4   162    18.9    0.00 
 124   21:40   0.00   72.6    44   13.2   156    16.6    0.00 
 124   21:45   0.00   72.6    43   13.5   164    16.6    0.00 
 124   21:50   0.00   72.6    43   11.9   156    15.5    0.00 
 124   21:55   0.00   72.3    43   13.1   153    16.0    0.00 
 124   22:00   0.00   72.1    43   11.8   158    15.5    0.00 
 124   22:05   0.00   71.9    43   13.8   149    17.7    0.00 
 124   22:10   0.00   71.7    42   12.8   154    16.6    0.00 
 124   22:15   0.00   71.5    41   13.7   164    17.7    0.00 
 124   22:20   0.00   71.4    41   16.2   159    20.0    0.00 
 124   22:25   0.00   71.3    41   16.4   157    20.0    0.00 
 124   22:30   0.00   71.1    42   15.9   158    18.9    0.00 
 124   22:35   0.00   70.9    42   16.0   154    20.0    0.00 
 124   22:40   0.00   70.8    43   16.1   159    20.5    0.00 
 124   22:45   0.00   70.6    44   17.6   161    22.2    0.00 
 124   22:50   0.00   70.4    44   16.3   157    19.4    0.00 
 124   22:55   0.00   70.2    45   15.4   148    18.9    0.00 
 124   23:00   0.00   70.0    46   16.5   152    20.5    0.00 
 124   23:05   0.00   69.8    48   16.4   155    20.5    0.00 
 124   23:10   0.00   69.7    49   17.1   156    21.1    0.00 
 124   23:15   0.00   69.5    51   17.7   156    21.1    0.00 
 124   23:20   0.00   69.3    52   15.9   154    20.0    0.00 
 124   23:25   0.00   69.0    54   15.5   155    20.0    0.00 
 124   23:30   0.00   68.7    55   15.8   152    18.3    0.00 
 124   23:35   0.00   68.4    56   16.1   157    20.5    0.00 
 124   23:40   0.00   68.2    56   13.9   166    19.4    0.00 
 124   23:45   0.00   68.0    56   12.3   153    15.5    0.00 
 124   23:50   0.00   67.9    56   13.5   149    17.2    0.00 
 124   23:55   0.00   67.8    55   15.1   154    20.0    0.00 
 125    0:00   0.00   67.8    54   15.9   155    19.4    0.00 
 125    0:05   0.00   67.7    53   14.3   152    17.2    0.00 
 125    0:10   0.00   67.7    53   12.3   152    14.9    0.00 
 125    0:15   0.00   67.7    53   10.6   157    13.8    0.00 
 125    0:20   0.00   67.7    54   11.8   160    16.6    0.00 
 125    0:25   0.00   67.8    54   13.4   157    17.7    0.00 
 125    0:30   0.00   67.7    54    9.8   166    12.7    0.00 
 125    0:35   0.00   67.8    53   11.1   176    14.4    0.00 
 125    0:40   0.00   67.7    52   10.0   182    12.7    0.00 
 125    0:45   0.00   67.5    52    8.5   182    11.0    0.00 
 125    0:50   0.00   67.3    53    7.7   185     9.3    0.00 
 125    0:55   0.00   67.2    53    9.6   182    11.6    0.00 
 125    1:00   0.00   67.1    53    8.8   181    11.0    0.00 
 125    1:05   0.00   67.1    52    8.5   182    10.5    0.00 
 125    1:10   0.00   67.0    53    7.8   188     8.8    0.00 
 125    1:15   0.00   67.1    51    9.2   198    12.1    0.00 
 125    1:20   0.00   67.3    44   10.8   200    12.7    0.00 
 125    1:25   0.00   67.4    42   11.8   202    13.8    0.00 
 125    1:30   0.00   67.3    40    9.9   209    12.1    0.00 
 125    1:35   0.00   66.9    38   10.2   215    12.7    0.00 
 125    1:40   0.00   66.7    38    9.6   215    14.4    0.00 
 125    1:45   0.00   66.4    39    9.2   219    12.7    0.00 
 125    1:50   0.00   66.2    39    9.1   218    13.8    0.00 
 125    1:55   0.00   66.2    39   10.8   226    15.5    0.00 
 125    2:00   0.00   66.1    39   10.2   227    12.7    0.00 
 125    2:05   0.00   65.9    39   11.2   228    14.4    0.00 
 125    2:10   0.00   65.7    39   10.1   231    12.1    0.00 
 125    2:15   0.00   65.5    39    8.3   228    11.0    0.00 
 125    2:20   0.00   65.3    40    5.9   221     8.2    0.00 
 125    2:25   0.00   65.0    40    4.6   217     5.4    0.00 
 125    2:30   0.00   64.7    40    4.7   216     7.7    0.00 
 125    2:35   0.00   64.4    40    4.9   216     6.5    0.00 
 125    2:40   0.00   64.1    41    5.7   217     7.1    0.00 
 125    2:45   0.00   63.9    41    6.3   224     8.2    0.00 
 125    2:50   0.00   63.7    41    7.3   230    10.5    0.00 
 125    2:55   0.00   63.7    41    7.8   228     9.9    0.00 
 125    3:00   0.00   63.1    42    7.2   227     8.2    0.00 
 125    3:05   0.00   62.9    42    8.6   225    11.6    0.00 
 125    3:10   0.00   63.0    42    9.1   223    11.6    0.00 
 125    3:15   0.00   62.8    42    9.0   222    11.0    0.00 
 125    3:20   0.00   62.7    42   10.1   224    13.8    0.00 
 125    3:25   0.00   62.8    42   12.3   225    17.2    0.00 
 125    3:30   0.00   63.0    42   15.5   223    18.3    0.00 

Return to Spot Road graphs page.


Western Regional Climate Center,wrcc@dri.edu